sensor_id;sensor_type;location;lat;lon;timestamp;pressure;altitude;pressure_sealevel;temperature;humidity
18985;BME280;9626;52.552;13.436;2024-02-28T00:01:24;101244.44;;;4.54;100.00
18985;BME280;9626;52.552;13.436;2024-02-28T00:03:50;101248.84;;;4.57;100.00
18985;BME280;9626;52.552;13.436;2024-02-28T00:06:17;101236.63;;;4.59;100.00
18985;BME280;9626;52.552;13.436;2024-02-28T00:08:43;101234.97;;;4.66;100.00
18985;BME280;9626;52.552;13.436;2024-02-28T00:11:09;101231.47;;;4.64;100.00
18985;BME280;9626;52.552;13.436;2024-02-28T00:13:35;101228.75;;;4.61;100.00
18985;BME280;9626;52.552;13.436;2024-02-28T00:16:02;101221.72;;;4.56;100.00
18985;BME280;9626;52.552;13.436;2024-02-28T00:18:29;101225.25;;;4.59;100.00
18985;BME280;9626;52.552;13.436;2024-02-28T00:20:56;101229.59;;;4.58;100.00
18985;BME280;9626;52.552;13.436;2024-02-28T00:23:23;101220.88;;;4.59;100.00
18985;BME280;9626;52.552;13.436;2024-02-28T00:25:49;101231.44;;;4.62;100.00
18985;BME280;9626;52.552;13.436;2024-02-28T00:28:15;101233.19;;;4.63;100.00
18985;BME280;9626;52.552;13.436;2024-02-28T00:30:41;101223.56;;;4.62;100.00
18985;BME280;9626;52.552;13.436;2024-02-28T00:33:07;101235.75;;;4.59;100.00
18985;BME280;9626;52.552;13.436;2024-02-28T00:35:33;101234.84;;;4.58;100.00
18985;BME280;9626;52.552;13.436;2024-02-28T00:38:00;101228.75;;;4.59;100.00
18985;BME280;9626;52.552;13.436;2024-02-28T00:40:26;101239.25;;;4.61;100.00
18985;BME280;9626;52.552;13.436;2024-02-28T00:42:52;101231.50;;;4.67;100.00
18985;BME280;9626;52.552;13.436;2024-02-28T00:45:18;101230.53;;;4.60;100.00
18985;BME280;9626;52.552;13.436;2024-02-28T00:47:44;101230.63;;;4.66;100.00
18985;BME280;9626;52.552;13.436;2024-02-28T00:50:10;101225.38;;;4.66;100.00
18985;BME280;9626;52.552;13.436;2024-02-28T00:52:37;101230.63;;;4.66;100.00
18985;BME280;9626;52.552;13.436;2024-02-28T00:55:03;101222.69;;;4.63;100.00
18985;BME280;9626;52.552;13.436;2024-02-28T00:57:31;101228.69;;;4.54;100.00
18985;BME280;9626;52.552;13.436;2024-02-28T00:59:57;101229.53;;;4.52;100.00
18985;BME280;9626;52.552;13.436;2024-02-28T01:02:23;101226.91;;;4.50;100.00
18985;BME280;9626;52.552;13.436;2024-02-28T01:04:49;101230.47;;;4.55;100.00
18985;BME280;9626;52.552;13.436;2024-02-28T01:07:15;101238.34;;;4.57;100.00
18985;BME280;9626;52.552;13.436;2024-02-28T01:09:40;101225.31;;;4.65;100.00
18985;BME280;9626;52.552;13.436;2024-02-28T01:12:07;101227.88;;;4.59;100.00
18985;BME280;9626;52.552;13.436;2024-02-28T01:14:33;101240.16;;;4.61;100.00
18985;BME280;9626;52.552;13.436;2024-02-28T01:16:59;101244.56;;;4.62;100.00
18985;BME280;9626;52.552;13.436;2024-02-28T01:19:25;101244.47;;;4.57;100.00
18985;BME280;9626;52.552;13.436;2024-02-28T01:21:51;101249.59;;;4.50;100.00
18985;BME280;9626;52.552;13.436;2024-02-28T01:24:17;101246.25;;;4.59;100.00
18985;BME280;9626;52.552;13.436;2024-02-28T01:26:45;101244.56;;;4.62;100.00
18985;BME280;9626;52.552;13.436;2024-02-28T01:29:11;101247.03;;;4.53;100.00
18985;BME280;9626;52.552;13.436;2024-02-28T01:31:37;101240.81;;;4.45;100.00
18985;BME280;9626;52.552;13.436;2024-02-28T01:34:03;101246.09;;;4.49;100.00
18985;BME280;9626;52.552;13.436;2024-02-28T01:36:29;101248.75;;;4.51;100.00
18985;BME280;9626;52.552;13.436;2024-02-28T01:38:55;101239.19;;;4.53;100.00
18985;BME280;9626;52.552;13.436;2024-02-28T01:41:21;101235.72;;;4.55;100.00
18985;BME280;9626;52.552;13.436;2024-02-28T01:43:47;101233.16;;;4.60;100.00
18985;BME280;9626;52.552;13.436;2024-02-28T01:46:25;101226.22;;;4.64;100.00
18985;BME280;9626;52.552;13.436;2024-02-28T01:48:53;101234.06;;;4.62;100.00
18985;BME280;9626;52.552;13.436;2024-02-28T01:51:24;101240.97;;;4.57;100.00
18985;BME280;9626;52.552;13.436;2024-02-28T01:53:52;101236.56;;;4.53;100.00
18985;BME280;9626;52.552;13.436;2024-02-28T01:56:20;101237.44;;;4.56;100.00
18985;BME280;9626;52.552;13.436;2024-02-28T01:58:47;101233.97;;;4.57;100.00
18985;BME280;9626;52.552;13.436;2024-02-28T02:01:13;101234.81;;;4.55;100.00
18985;BME280;9626;52.552;13.436;2024-02-28T02:03:40;101234.75;;;4.50;100.00
18985;BME280;9626;52.552;13.436;2024-02-28T02:06:06;101239.06;;;4.47;100.00
18985;BME280;9626;52.552;13.436;2024-02-28T02:08:32;101229.50;;;4.49;100.00
18985;BME280;9626;52.552;13.436;2024-02-28T02:11:00;101232.97;;;4.48;100.00
18985;BME280;9626;52.552;13.436;2024-02-28T02:13:26;101224.19;;;4.44;100.00
18985;BME280;9626;52.552;13.436;2024-02-28T02:15:52;101221.56;;;4.46;100.00
18985;BME280;9626;52.552;13.436;2024-02-28T02:18:18;101220.66;;;4.42;100.00
18985;BME280;9626;52.552;13.436;2024-02-28T02:20:50;101220.69;;;4.44;100.00
18985;BME280;9626;52.552;13.436;2024-02-28T02:23:20;101223.34;;;4.48;100.00
18985;BME280;9626;52.552;13.436;2024-02-28T02:25:46;101235.63;;;4.49;100.00
18985;BME280;9626;52.552;13.436;2024-02-28T02:28:13;101228.59;;;4.48;100.00
18985;BME280;9626;52.552;13.436;2024-02-28T02:30:41;101234.00;;;4.59;100.00
18985;BME280;9626;52.552;13.436;2024-02-28T02:33:07;101240.28;;;4.70;100.00
18985;BME280;9626;52.552;13.436;2024-02-28T02:35:33;101242.97;;;4.75;100.00
18985;BME280;9626;52.552;13.436;2024-02-28T02:38:00;101255.16;;;4.73;100.00
18985;BME280;9626;52.552;13.436;2024-02-28T02:40:27;101252.63;;;4.78;100.00
18985;BME280;9626;52.552;13.436;2024-02-28T02:42:53;101252.63;;;4.78;100.00
18985;BME280;9626;52.552;13.436;2024-02-28T02:45:19;101247.34;;;4.74;100.00
18985;BME280;9626;52.552;13.436;2024-02-28T02:47:45;101252.66;;;4.81;100.00
18985;BME280;9626;52.552;13.436;2024-02-28T02:50:11;101256.13;;;4.80;100.00
18985;BME280;9626;52.552;13.436;2024-02-28T02:52:37;101274.44;;;4.75;100.00
18985;BME280;9626;52.552;13.436;2024-02-28T02:55:03;101273.47;;;4.68;100.00
18985;BME280;9626;52.552;13.436;2024-02-28T02:57:32;101273.50;;;4.71;100.00
18985;BME280;9626;52.552;13.436;2024-02-28T02:59:58;101278.72;;;4.68;100.00
18985;BME280;9626;52.552;13.436;2024-02-28T03:02:24;101267.38;;;4.69;100.00
18985;BME280;9626;52.552;13.436;2024-02-28T03:04:50;101267.38;;;4.68;100.00
18985;BME280;9626;52.552;13.436;2024-02-28T03:07:16;101273.47;;;4.68;100.00
18985;BME280;9626;52.552;13.436;2024-02-28T03:09:42;101273.44;;;4.64;100.00
18985;BME280;9626;52.552;13.436;2024-02-28T03:12:08;101275.13;;;4.60;100.00
18985;BME280;9626;52.552;13.436;2024-02-28T03:14:37;101274.16;;;4.55;100.00
18985;BME280;9626;52.552;13.436;2024-02-28T03:17:03;101276.81;;;4.58;100.00
18985;BME280;9626;52.552;13.436;2024-02-28T03:19:29;101275.97;;;4.59;100.00
18985;BME280;9626;52.552;13.436;2024-02-28T03:21:55;101281.22;;;4.59;100.00
18985;BME280;9626;52.552;13.436;2024-02-28T03:24:21;101280.38;;;4.60;100.00
18985;BME280;9626;52.552;13.436;2024-02-28T03:26:47;101278.59;;;4.61;100.00
18985;BME280;9626;52.552;13.436;2024-02-28T03:29:13;101277.78;;;4.65;100.00
18985;BME280;9626;52.552;13.436;2024-02-28T03:31:39;101276.03;;;4.62;100.00
18985;BME280;9626;52.552;13.436;2024-02-28T03:34:05;101282.19;;;4.66;100.00
18985;BME280;9626;52.552;13.436;2024-02-28T03:36:31;101284.75;;;4.61;100.00
18985;BME280;9626;52.552;13.436;2024-02-28T03:38:57;101283.69;;;4.48;100.00
18985;BME280;9626;52.552;13.436;2024-02-28T03:41:23;101276.63;;;4.46;100.00
18985;BME280;9626;52.552;13.436;2024-02-28T03:43:49;101273.84;;;4.35;100.00
18985;BME280;9626;52.552;13.436;2024-02-28T03:46:15;101277.38;;;4.34;100.00
18985;BME280;9626;52.552;13.436;2024-02-28T03:48:41;101286.03;;;4.30;100.00
18985;BME280;9626;52.552;13.436;2024-02-28T03:51:06;101286.75;;;4.21;100.00
18985;BME280;9626;52.552;13.436;2024-02-28T03:53:33;101279.78;;;4.20;100.00
18985;BME280;9626;52.552;13.436;2024-02-28T03:55:59;101284.28;;;4.30;100.00
18985;BME280;9626;52.552;13.436;2024-02-28T03:58:25;101284.41;;;4.36;100.00
18985;BME280;9626;52.552;13.436;2024-02-28T04:00:51;101275.66;;;4.39;100.00
18985;BME280;9626;52.552;13.436;2024-02-28T04:03:17;101283.66;;;4.47;100.00
18985;BME280;9626;52.552;13.436;2024-02-28T04:05:43;101282.81;;;4.48;100.00
18985;BME280;9626;52.552;13.436;2024-02-28T04:08:09;101276.69;;;4.47;100.00
18985;BME280;9626;52.552;13.436;2024-02-28T04:10:35;101282.78;;;4.46;100.00
18985;BME280;9626;52.552;13.436;2024-02-28T04:13:01;101294.97;;;4.43;100.00
18985;BME280;9626;52.552;13.436;2024-02-28T04:15:27;101297.63;;;4.46;100.00
18985;BME280;9626;52.552;13.436;2024-02-28T04:17:53;101289.00;;;4.53;100.00
18985;BME280;9626;52.552;13.436;2024-02-28T04:20:19;101296.69;;;4.40;100.00
18985;BME280;9626;52.552;13.436;2024-02-28T04:22:45;101302.69;;;4.33;100.00
18985;BME280;9626;52.552;13.436;2024-02-28T04:25:11;101298.41;;;4.38;100.00
18985;BME280;9626;52.552;13.436;2024-02-28T04:27:38;101295.78;;;4.38;100.00
18985;BME280;9626;52.552;13.436;2024-02-28T04:30:05;101292.31;;;4.39;100.00
18985;BME280;9626;52.552;13.436;2024-02-28T04:32:31;101294.84;;;4.35;100.00
18985;BME280;9626;52.552;13.436;2024-02-28T04:34:57;101305.44;;;4.41;100.00
18985;BME280;9626;52.552;13.436;2024-02-28T04:37:23;101304.59;;;4.44;100.00
18985;BME280;9626;52.552;13.436;2024-02-28T04:39:49;101310.66;;;4.39;100.00
18985;BME280;9626;52.552;13.436;2024-02-28T04:42:16;101311.47;;;4.35;100.00
18985;BME280;9626;52.552;13.436;2024-02-28T04:44:42;101316.69;;;4.34;100.00
18985;BME280;9626;52.552;13.436;2024-02-28T04:47:08;101325.50;;;4.39;100.00
18985;BME280;9626;52.552;13.436;2024-02-28T04:49:37;101328.06;;;4.36;100.00
18985;BME280;9626;52.552;13.436;2024-02-28T04:52:05;101329.00;;;4.39;100.00
18985;BME280;9626;52.552;13.436;2024-02-28T04:54:31;101328.19;;;4.42;100.00
18985;BME280;9626;52.552;13.436;2024-02-28T04:56:57;101322.09;;;4.45;100.00
18985;BME280;9626;52.552;13.436;2024-02-28T04:59:23;101320.34;;;4.44;100.00
18985;BME280;9626;52.552;13.436;2024-02-28T05:01:49;101329.00;;;4.39;100.00
18985;BME280;9626;52.552;13.436;2024-02-28T05:04:15;101333.44;;;4.44;100.00
18985;BME280;9626;52.552;13.436;2024-02-28T05:06:41;101332.59;;;4.45;100.00
18985;BME280;9626;52.552;13.436;2024-02-28T05:09:07;101326.38;;;4.38;100.00
18985;BME280;9626;52.552;13.436;2024-02-28T05:11:34;101337.69;;;4.35;100.00
18985;BME280;9626;52.552;13.436;2024-02-28T05:14:01;101337.69;;;4.35;100.00
18985;BME280;9626;52.552;13.436;2024-02-28T05:16:29;101342.97;;;4.38;100.00
18985;BME280;9626;52.552;13.436;2024-02-28T05:18:56;101348.25;;;4.42;100.00
18985;BME280;9626;52.552;13.436;2024-02-28T05:21:23;101360.38;;;4.33;100.00
18985;BME280;9626;52.552;13.436;2024-02-28T05:23:49;101355.91;;;4.28;100.00
18985;BME280;9626;52.552;13.436;2024-02-28T05:26:15;101356.88;;;4.33;100.00
18985;BME280;9626;52.552;13.436;2024-02-28T05:28:41;101357.00;;;4.40;100.00
18985;BME280;9626;52.552;13.436;2024-02-28T05:31:24;101355.28;;;4.43;100.00
18985;BME280;9626;52.552;13.436;2024-02-28T05:33:51;101352.78;;;4.50;100.00
18985;BME280;9626;52.552;13.436;2024-02-28T05:36:18;101363.19;;;4.46;100.00
18985;BME280;9626;52.552;13.436;2024-02-28T05:38:44;101358.00;;;4.47;100.00
18985;BME280;9626;52.552;13.436;2024-02-28T05:41:10;101358.06;;;4.52;100.00
18985;BME280;9626;52.552;13.436;2024-02-28T05:43:40;101355.47;;;4.55;100.00
18985;BME280;9626;52.552;13.436;2024-02-28T05:46:06;101362.44;;;4.53;100.00
18985;BME280;9626;52.552;13.436;2024-02-28T05:48:32;101364.19;;;4.54;100.00
18985;BME280;9626;52.552;13.436;2024-02-28T05:51:01;101367.69;;;4.53;100.00
18985;BME280;9626;52.552;13.436;2024-02-28T05:53:27;101370.84;;;4.33;100.00
18985;BME280;9626;52.552;13.436;2024-02-28T05:55:54;101379.69;;;4.38;100.00
18985;BME280;9626;52.552;13.436;2024-02-28T05:58:23;101385.59;;;4.27;100.00
18985;BME280;9626;52.552;13.436;2024-02-28T06:00:49;101387.28;;;4.21;100.00
18985;BME280;9626;52.552;13.436;2024-02-28T06:03:15;101384.66;;;4.21;100.00
18985;BME280;9626;52.552;13.436;2024-02-28T06:05:41;101388.13;;;4.20;100.00
18985;BME280;9626;52.552;13.436;2024-02-28T06:08:07;101381.09;;;4.18;100.00
18985;BME280;9626;52.552;13.436;2024-02-28T06:10:33;101395.78;;;4.10;100.00
18985;BME280;9626;52.552;13.436;2024-02-28T06:13:00;101395.66;;;4.03;100.00
18985;BME280;9626;52.552;13.436;2024-02-28T06:15:26;101408.84;;;4.06;100.00
18985;BME280;9626;52.552;13.436;2024-02-28T06:17:52;101412.19;;;3.99;100.00
18985;BME280;9626;52.552;13.436;2024-02-28T06:20:18;101411.13;;;3.89;100.00
18985;BME280;9626;52.552;13.436;2024-02-28T06:22:44;101418.09;;;3.87;100.00
18985;BME280;9626;52.552;13.436;2024-02-28T06:25:10;101416.50;;;3.96;100.00
18985;BME280;9626;52.552;13.436;2024-02-28T06:27:48;101421.75;;;3.96;100.00
18985;BME280;9626;52.552;13.436;2024-02-28T06:30:15;101425.44;;;4.07;100.00
18985;BME280;9626;52.552;13.436;2024-02-28T06:32:42;101422.16;;;4.17;100.00
18985;BME280;9626;52.552;13.436;2024-02-28T06:35:09;101426.53;;;4.18;100.00
18985;BME280;9626;52.552;13.436;2024-02-28T06:37:35;101433.31;;;4.07;100.00
18985;BME280;9626;52.552;13.436;2024-02-28T06:40:02;101428.72;;;3.95;100.00
18985;BME280;9626;52.552;13.436;2024-02-28T06:42:33;101429.66;;;3.99;100.00
18985;BME280;9626;52.552;13.436;2024-02-28T06:45:01;101429.88;;;4.10;100.00
18985;BME280;9626;52.552;13.436;2024-02-28T06:47:26;101436.09;;;4.15;100.00
18985;BME280;9626;52.552;13.436;2024-02-28T06:49:52;101430.75;;;4.12;100.00
18985;BME280;9626;52.552;13.436;2024-02-28T06:52:18;101433.38;;;4.10;100.00
18985;BME280;9626;52.552;13.436;2024-02-28T06:54:44;101436.16;;;4.19;100.00
18985;BME280;9626;52.552;13.436;2024-02-28T06:57:10;101440.53;;;4.19;100.00
18985;BME280;9626;52.552;13.436;2024-02-28T06:59:37;101441.19;;;4.07;100.00
18985;BME280;9626;52.552;13.436;2024-02-28T07:02:03;101447.78;;;3.88;100.00
18985;BME280;9626;52.552;13.436;2024-02-28T07:04:30;101450.16;;;3.74;100.00
18985;BME280;9626;52.552;13.436;2024-02-28T07:06:56;101458.81;;;3.71;100.00
18985;BME280;9626;52.552;13.436;2024-02-28T07:09:22;101457.25;;;3.80;100.00
18985;BME280;9626;52.552;13.436;2024-02-28T07:11:51;101466.94;;;3.84;100.00
18985;BME280;9626;52.552;13.436;2024-02-28T07:14:17;101458.34;;;3.93;100.00
18985;BME280;9626;52.552;13.436;2024-02-28T07:16:43;101457.47;;;3.92;100.00
18985;BME280;9626;52.552;13.436;2024-02-28T07:19:10;101457.38;;;3.86;100.00
18985;BME280;9626;52.552;13.436;2024-02-28T07:21:36;101458.91;;;3.76;100.00
18985;BME280;9626;52.552;13.436;2024-02-28T07:24:03;101457.03;;;3.70;100.00
18985;BME280;9626;52.552;13.436;2024-02-28T07:26:30;101467.63;;;3.75;100.00
18985;BME280;9626;52.552;13.436;2024-02-28T07:28:56;101455.63;;;3.86;100.00
18985;BME280;9626;52.552;13.436;2024-02-28T07:31:22;101452.00;;;3.80;100.00
18985;BME280;9626;52.552;13.436;2024-02-28T07:33:48;101450.31;;;3.82;100.00
18985;BME280;9626;52.552;13.436;2024-02-28T07:36:14;101458.41;;;3.94;100.00
18985;BME280;9626;52.552;13.436;2024-02-28T07:38:43;101449.81;;;4.01;100.00
18985;BME280;9626;52.552;13.436;2024-02-28T07:41:10;101453.91;;;3.88;100.00
18985;BME280;9626;52.552;13.436;2024-02-28T07:43:35;101455.63;;;3.86;100.00
18985;BME280;9626;52.552;13.436;2024-02-28T07:46:08;101455.56;;;3.83;100.00
18985;BME280;9626;52.552;13.436;2024-02-28T07:48:35;101461.44;;;3.71;100.00
18985;BME280;9626;52.552;13.436;2024-02-28T07:51:01;101463.03;;;3.65;100.00
18985;BME280;9626;52.552;13.436;2024-02-28T07:53:27;101466.72;;;3.73;100.00
18985;BME280;9626;52.552;13.436;2024-02-28T07:55:53;101479.28;;;3.89;100.00
18985;BME280;9626;52.552;13.436;2024-02-28T07:58:20;101475.31;;;4.10;100.00
18985;BME280;9626;52.552;13.436;2024-02-28T08:00:46;101482.47;;;4.19;100.00
18985;BME280;9626;52.552;13.436;2024-02-28T08:03:12;101485.72;;;4.05;100.00
18985;BME280;9626;52.552;13.436;2024-02-28T08:05:38;101494.13;;;3.89;100.00
18985;BME280;9626;52.552;13.436;2024-02-28T08:08:08;101488.84;;;3.87;100.00
18985;BME280;9626;52.552;13.436;2024-02-28T08:10:36;101488.25;;;3.60;100.00
18985;BME280;9626;52.552;13.436;2024-02-28T08:13:03;101490.88;;;3.60;100.00
18985;BME280;9626;52.552;13.436;2024-02-28T08:15:29;101496.84;;;3.54;100.00
18985;BME280;9626;52.552;13.436;2024-02-28T08:17:55;101499.69;;;3.63;100.00
18985;BME280;9626;52.552;13.436;2024-02-28T08:20:21;101502.03;;;3.51;100.00
18985;BME280;9626;52.552;13.436;2024-02-28T08:22:47;101502.16;;;3.57;100.00
18985;BME280;9626;52.552;13.436;2024-02-28T08:25:13;101513.00;;;3.72;100.00
18985;BME280;9626;52.552;13.436;2024-02-28T08:27:40;101514.94;;;3.83;100.00
18985;BME280;9626;52.552;13.436;2024-02-28T08:30:06;101519.59;;;3.96;100.00
18985;BME280;9626;52.552;13.436;2024-02-28T08:32:32;101523.28;;;4.06;100.00
18985;BME280;9626;52.552;13.436;2024-02-28T08:34:59;101524.84;;;3.98;100.00
18985;BME280;9626;52.552;13.436;2024-02-28T08:37:25;101521.91;;;3.81;100.00
18985;BME280;9626;52.552;13.436;2024-02-28T08:39:53;101527.38;;;3.92;100.00
18985;BME280;9626;52.552;13.436;2024-02-28T08:42:22;101524.13;;;3.64;100.00
18985;BME280;9626;52.552;13.436;2024-02-28T08:44:48;101522.28;;;3.60;100.00
18985;BME280;9626;52.552;13.436;2024-02-28T08:47:14;101532.16;;;3.71;100.00
18985;BME280;9626;52.552;13.436;2024-02-28T08:49:40;101526.31;;;3.83;100.00
18985;BME280;9626;52.552;13.436;2024-02-28T08:52:06;101527.75;;;3.69;100.00
18985;BME280;9626;52.552;13.436;2024-02-28T08:54:33;101525.91;;;3.65;100.00
18985;BME280;9626;52.552;13.436;2024-02-28T08:56:59;101532.16;;;3.71;100.00
18985;BME280;9626;52.552;13.436;2024-02-28T08:59:25;101524.88;;;3.58;100.00
18985;BME280;9626;52.552;13.436;2024-02-28T09:01:51;101529.31;;;3.61;100.00
18985;BME280;9626;52.552;13.436;2024-02-28T09:04:17;101522.28;;;3.60;100.00
18985;BME280;9626;52.552;13.436;2024-02-28T09:06:43;101521.38;;;3.19;100.00
18985;BME280;9626;52.552;13.436;2024-02-28T09:09:09;101511.84;;;3.23;100.00
18985;BME280;9626;52.552;13.436;2024-02-28T09:11:35;101520.47;;;3.19;100.00
18985;BME280;9626;52.552;13.436;2024-02-28T09:14:01;101527.22;;;3.09;100.00
18985;BME280;9626;52.552;13.436;2024-02-28T09:16:27;101524.78;;;3.15;100.00
18985;BME280;9626;52.552;13.436;2024-02-28T09:18:54;101525.09;;;3.29;100.00
18985;BME280;9626;52.552;13.436;2024-02-28T09:21:20;101537.84;;;3.14;100.00
18985;BME280;9626;52.552;13.436;2024-02-28T09:23:46;101533.75;;;2.90;100.00
18985;BME280;9626;52.552;13.436;2024-02-28T09:26:12;101537.22;;;2.89;100.00
18985;BME280;9626;52.552;13.436;2024-02-28T09:28:38;101527.94;;;3.02;100.00
18985;BME280;9626;52.552;13.436;2024-02-28T09:31:04;101540.34;;;3.11;100.00
18985;BME280;9626;52.552;13.436;2024-02-28T09:33:30;101539.38;;;3.06;100.00
18985;BME280;9626;52.552;13.436;2024-02-28T09:35:56;101541.34;;;3.16;100.00
18985;BME280;9626;52.552;13.436;2024-02-28T09:38:22;101544.28;;;3.28;100.00
18985;BME280;9626;52.552;13.436;2024-02-28T09:40:48;101544.69;;;3.45;100.00
18985;BME280;9626;52.552;13.436;2024-02-28T09:43:41;101539.19;;;3.34;100.00
18985;BME280;9626;52.552;13.436;2024-02-28T09:46:08;101546.09;;;3.32;100.00
18985;BME280;9626;52.552;13.436;2024-02-28T09:48:39;101542.81;;;3.40;100.00
18985;BME280;9626;52.552;13.436;2024-02-28T09:51:09;101548.81;;;3.35;100.00
18985;BME280;9626;52.552;13.436;2024-02-28T09:53:37;101544.13;;;3.22;100.00
18985;BME280;9626;52.552;13.436;2024-02-28T09:56:06;101553.84;;;3.26;100.00
18985;BME280;9626;52.552;13.436;2024-02-28T09:58:32;101552.88;;;3.22;100.00
18985;BME280;9626;52.552;13.436;2024-02-28T10:01:02;101558.13;;;3.24;100.00
18985;BME280;9626;52.552;13.436;2024-02-28T10:03:30;101556.63;;;3.34;100.00
18985;BME280;9626;52.552;13.436;2024-02-28T10:05:56;101561.75;;;3.29;100.00
18985;BME280;9626;52.552;13.436;2024-02-28T10:08:22;101566.50;;;3.46;100.00
18985;BME280;9626;52.552;13.436;2024-02-28T10:10:49;101571.22;;;3.61;100.00
18985;BME280;9626;52.552;13.436;2024-02-28T10:13:20;101568.06;;;3.76;100.00
18985;BME280;9626;52.552;13.436;2024-02-28T10:15:48;101565.59;;;3.82;100.00
18985;BME280;9626;52.552;13.436;2024-02-28T10:18:14;101575.28;;;3.86;100.00
18985;BME280;9626;52.552;13.436;2024-02-28T10:20:40;101578.97;;;3.94;100.00
18985;BME280;9626;52.552;13.436;2024-02-28T10:23:07;101581.38;;;3.85;100.00
18985;BME280;9626;52.552;13.436;2024-02-28T10:25:44;101590.94;;;3.84;100.00
18985;BME280;9626;52.552;13.436;2024-02-28T10:28:11;101587.38;;;3.79;100.00
18985;BME280;9626;52.552;13.436;2024-02-28T10:30:43;101583.88;;;3.80;100.00
18985;BME280;9626;52.552;13.436;2024-02-28T10:33:13;101588.41;;;3.86;100.00
18985;BME280;9626;52.552;13.436;2024-02-28T10:35:43;101591.59;;;3.72;100.00
18985;BME280;9626;52.552;13.436;2024-02-28T10:38:13;101584.78;;;3.81;100.00
18985;BME280;9626;52.552;13.436;2024-02-28T10:40:43;101592.50;;;3.76;100.00
18985;BME280;9626;52.552;13.436;2024-02-28T10:43:09;101592.59;;;3.79;100.00
18985;BME280;9626;52.552;13.436;2024-02-28T10:45:36;101584.88;;;3.85;100.00
18985;BME280;9626;52.552;13.436;2024-02-28T10:48:06;101588.03;;;3.70;100.00
18985;BME280;9626;52.552;13.436;2024-02-28T10:50:33;101594.97;;;3.68;100.00
18985;BME280;9626;52.552;13.436;2024-02-28T10:53:02;101594.56;;;3.51;100.00
18985;BME280;9626;52.552;13.436;2024-02-28T10:55:38;101601.25;;;3.38;100.00
18985;BME280;9626;52.552;13.436;2024-02-28T10:58:08;101599.53;;;3.41;100.00
18985;BME280;9626;52.552;13.436;2024-02-28T11:00:42;101598.72;;;3.42;100.00
18985;BME280;9626;52.552;13.436;2024-02-28T11:03:16;101604.53;;;3.66;100.00
18985;BME280;9626;52.552;13.436;2024-02-28T11:05:44;101600.28;;;3.71;100.00
18985;BME280;9626;52.552;13.436;2024-02-28T11:08:23;101604.91;;;3.82;100.00
18985;BME280;9626;52.552;13.436;2024-02-28T11:10:57;101602.41;;;3.88;100.00
18985;BME280;9626;52.552;13.436;2024-02-28T11:13:24;101601.75;;;3.98;100.00
18985;BME280;9626;52.552;13.436;2024-02-28T11:15:51;101604.56;;;4.07;100.00
18985;BME280;9626;52.552;13.436;2024-02-28T11:18:18;101599.47;;;4.14;100.00
18985;BME280;9626;52.552;13.436;2024-02-28T11:20:48;101603.00;;;4.16;100.00
18985;BME280;9626;52.552;13.436;2024-02-28T11:23:17;101598.59;;;4.13;100.00
18985;BME280;9626;52.552;13.436;2024-02-28T11:25:43;101591.63;;;4.15;100.00
18985;BME280;9626;52.552;13.436;2024-02-28T11:28:09;101597.69;;;4.13;100.00
18985;BME280;9626;52.552;13.436;2024-02-28T11:30:35;101594.16;;;4.11;100.00
18985;BME280;9626;52.552;13.436;2024-02-28T11:33:02;101599.59;;;4.20;100.00
18985;BME280;9626;52.552;13.436;2024-02-28T11:35:28;101594.41;;;4.21;100.00
18985;BME280;9626;52.552;13.436;2024-02-28T11:37:55;101592.78;;;4.28;100.00
18985;BME280;9626;52.552;13.436;2024-02-28T11:40:24;101593.75;;;4.35;100.00
18985;BME280;9626;52.552;13.436;2024-02-28T11:42:54;101602.56;;;4.37;100.00
18985;BME280;9626;52.552;13.436;2024-02-28T11:45:21;101606.78;;;4.30;100.00
18985;BME280;9626;52.552;13.436;2024-02-28T11:47:50;101603.72;;;4.09;100.00
18985;BME280;9626;52.552;13.436;2024-02-28T11:50:16;101615.81;;;4.02;100.00
18985;BME280;9626;52.552;13.436;2024-02-28T11:52:44;101601.75;;;3.97;100.00
18985;BME280;9626;52.552;13.436;2024-02-28T11:55:11;101615.56;;;3.91;100.00
18985;BME280;9626;52.552;13.436;2024-02-28T11:57:37;101615.44;;;3.85;100.00
18985;BME280;9626;52.552;13.436;2024-02-28T12:00:07;101616.19;;;3.79;100.00
18985;BME280;9626;52.552;13.436;2024-02-28T12:02:34;101628.03;;;3.63;100.00
18985;BME280;9626;52.552;13.436;2024-02-28T12:05:02;101623.94;;;3.76;100.00
18985;BME280;9626;52.552;13.436;2024-02-28T12:07:30;101625.34;;;3.98;100.00
18985;BME280;9626;52.552;13.436;2024-02-28T12:10:00;101617.59;;;4.04;100.00
18985;BME280;9626;52.552;13.436;2024-02-28T12:12:28;101618.72;;;4.16;100.00
18985;BME280;9626;52.552;13.436;2024-02-28T12:15:01;101604.22;;;4.33;100.00
18985;BME280;9626;52.552;13.436;2024-02-28T12:17:29;101612.84;;;4.26;100.00
18985;BME280;9626;52.552;13.436;2024-02-28T12:19:55;101610.09;;;4.20;100.00
18985;BME280;9626;52.552;13.436;2024-02-28T12:22:21;101611.72;;;4.15;100.00
18985;BME280;9626;52.552;13.436;2024-02-28T12:24:48;101615.03;;;4.07;100.00
18985;BME280;9626;52.552;13.436;2024-02-28T12:27:14;101613.22;;;4.03;100.00
18985;BME280;9626;52.552;13.436;2024-02-28T12:29:40;101604.56;;;4.07;100.00
18985;BME280;9626;52.552;13.436;2024-02-28T12:32:07;101610.34;;;3.93;100.00
18985;BME280;9626;52.552;13.436;2024-02-28T12:34:33;101606.13;;;3.99;100.00
18985;BME280;9626;52.552;13.436;2024-02-28T12:36:59;101604.22;;;3.92;100.00
18985;BME280;9626;52.552;13.436;2024-02-28T12:39:26;101609.00;;;4.10;100.00
18985;BME280;9626;52.552;13.436;2024-02-28T12:41:52;101615.50;;;4.29;100.00
18985;BME280;9626;52.552;13.436;2024-02-28T12:44:21;101613.31;;;4.06;100.00
18985;BME280;9626;52.552;13.436;2024-02-28T12:46:47;101618.88;;;4.22;100.00
18985;BME280;9626;52.552;13.436;2024-02-28T12:49:14;101621.66;;;4.30;100.00